Time;durP1;ratioP1;P1;durP2;ratioP2;P2;SDS_P1;SDS_P2;PMS_P1;PMS_P2;Temp;Humidity;BMP_temperature;BMP_pressure;BME280_temperature;BME280_humidity;BME280_pressure;Samples;Min_cycle;Max_cycle;Signal;HPM_P1;HPM_P2
2023/01/28 00:02:03;;;;;;;27.70;13.00;;;;;;;2.75;84.74;100930.34;4932056;29;20095;-82
2023/01/28 00:04:28;;;;;;;20.92;9.30;;;;;;;2.84;84.78;100946.41;4931805;29;20125;-82
2023/01/28 00:06:53;;;;;;;10.80;8.55;;;;;;;2.92;84.71;100953.16;4947965;29;20032;-82
2023/01/28 00:09:19;;;;;;;14.05;9.82;;;;;;;2.82;84.10;100947.31;4915765;29;20032;-82
2023/01/28 00:11:44;;;;;;;12.35;8.55;;;;;;;2.88;84.37;100953.19;4947667;29;20032;-82
2023/01/28 00:14:11;;;;;;;14.15;11.43;;;;;;;2.90;84.47;100954.88;4931841;29;20063;-82
2023/01/28 00:16:37;;;;;;;19.15;12.40;;;;;;;2.70;83.87;100932.13;4947729;29;20032;-82
2023/01/28 00:19:02;;;;;;;10.43;7.57;;;;;;;2.75;83.99;100941.44;4931496;29;20028;-82
2023/01/28 00:21:27;;;;;;;15.80;9.38;;;;;;;2.86;84.46;100959.19;4950703;29;20055;-82
2023/01/28 00:23:54;;;;;;;14.93;8.70;;;;;;;2.79;84.53;100962.69;4934682;29;20032;-82
2023/01/28 00:26:19;;;;;;;24.63;9.55;;;;;;;2.83;84.58;100972.00;4919463;29;20024;-82
2023/01/28 00:28:45;;;;;;;16.98;11.40;;;;;;;2.81;84.50;100966.91;4919377;29;20034;-82
2023/01/28 00:31:16;;;;;;;11.35;7.13;;;;;;;2.83;84.45;100964.31;4935519;29;20032;-82
2023/01/28 00:33:42;;;;;;;13.45;9.88;;;;;;;2.81;84.52;100973.72;4919267;29;20028;-82
2023/01/28 00:36:08;;;;;;;14.38;8.43;;;;;;;2.80;84.26;100974.59;4935010;29;20033;-82
2023/01/28 00:38:34;;;;;;;12.43;8.38;;;;;;;2.68;84.50;100959.41;4934642;29;20506;-82
2023/01/28 00:41:13;;;;;;;16.17;9.68;;;;;;;2.74;84.33;100954.22;4934975;29;20071;-82
2023/01/28 00:43:39;;;;;;;9.75;8.30;;;;;;;2.76;84.24;100962.72;4918989;29;20452;-82
2023/01/28 00:46:06;;;;;;;14.30;9.85;;;;;;;2.69;84.84;100963.66;4934947;29;20055;-82
2023/01/28 00:48:32;;;;;;;9.43;8.23;;;;;;;2.74;85.47;100972.09;4950859;29;20040;-82
2023/01/28 00:50:57;;;;;;;15.18;9.68;;;;;;;2.83;85.06;100982.22;4934833;29;20055;-82
2023/01/28 00:53:23;;;;;;;19.92;10.20;;;;;;;2.76;84.60;100976.34;4950307;29;20043;-82
2023/01/28 00:55:48;;;;;;;15.18;7.30;;;;;;;2.85;84.80;100999.25;4950716;29;20078;-82
2023/01/28 00:58:14;;;;;;;16.05;8.55;;;;;;;2.79;84.36;100988.22;4950663;29;20551;-82
2023/01/28 01:00:39;;;;;;;15.50;10.98;;;;;;;2.53;84.71;100945.94;4934648;29;20039;-82
2023/01/28 01:03:05;;;;;;;9.95;6.65;;;;;;;2.72;84.63;100969.56;4934397;29;20091;-82
2023/01/28 01:05:32;;;;;;;14.45;8.13;;;;;;;2.96;84.47;100994.00;4934200;29;20451;-82
2023/01/28 01:07:58;;;;;;;15.60;8.52;;;;;;;2.81;83.74;100976.28;4935197;29;20960;-82
2023/01/28 01:10:23;;;;;;;10.93;7.78;;;;;;;2.78;83.73;100982.28;4934591;29;20063;-82
2023/01/28 01:12:49;;;;;;;9.88;7.82;;;;;;;2.89;83.59;100989.81;4950204;29;20078;-82
2023/01/28 01:15:15;;;;;;;11.20;8.52;;;;;;;2.92;83.44;100984.66;4934720;29;20031;-82
2023/01/28 01:17:42;;;;;;;9.90;7.30;;;;;;;2.80;83.23;100974.59;4950162;29;20119;-82
2023/01/28 01:20:13;;;;;;;17.83;10.40;;;;;;;2.80;83.88;100974.59;4934180;29;20042;-82
2023/01/28 01:22:38;;;;;;;18.38;10.43;;;;;;;2.86;83.38;100989.88;4934007;29;20052;-82
2023/01/28 01:25:05;;;;;;;8.35;6.78;;;;;;;2.82;83.63;100994.16;4918253;29;20028;-82
2023/01/28 01:27:31;;;;;;;7.13;5.57;;;;;;;2.80;83.58;100989.91;4933924;29;20024;-82
2023/01/28 01:29:57;;;;;;;5.15;3.92;;;;;;;2.93;83.57;101000.84;4950020;29;20087;-82
2023/01/28 01:32:23;;;;;;;16.77;5.47;;;;;;;2.87;82.49;101009.44;4949907;28;20039;-82
2023/01/28 01:34:49;;;;;;;5.47;3.67;;;;;;;2.85;82.37;101008.59;4917839;29;20118;-82
2023/01/28 01:37:14;;;;;;;5.80;5.18;;;;;;;2.77;81.93;100982.31;4949719;29;20415;-82
2023/01/28 01:39:40;;;;;;;9.23;5.60;;;;;;;2.87;81.65;101002.63;4933908;29;20095;-82
2023/01/28 01:42:07;;;;;;;9.75;5.32;;;;;;;2.91;81.97;101005.97;4917982;29;20495;-82
2023/01/28 01:44:56;;;;;;;7.97;6.25;;;;;;;2.71;81.70;100982.34;4934174;29;20028;-82
2023/01/28 01:47:25;;;;;;;9.95;4.85;;;;;;;2.82;80.89;100998.41;4948349;29;20024;-82
2023/01/28 01:49:50;;;;;;;12.35;4.93;;;;;;;2.93;80.18;101006.81;4933421;29;20126;-82
2023/01/28 01:52:18;;;;;;;5.68;3.92;;;;;;;2.94;79.23;101003.38;4934067;29;20111;-82
2023/01/28 01:54:45;;;;;;;10.10;4.07;;;;;;;2.80;79.00;100990.78;4933311;29;20034;-82
2023/01/28 01:57:14;;;;;;;4.55;3.78;;;;;;;2.93;79.06;101006.81;4933274;29;20311;-82
2023/01/28 01:59:39;;;;;;;5.80;3.70;;;;;;;2.77;79.19;100997.63;4949567;29;20042;-82
2023/01/28 02:02:05;;;;;;;4.80;3.33;;;;;;;2.86;78.60;101018.81;4933564;29;20028;-82
2023/01/28 02:04:32;;;;;;;6.35;3.00;;;;;;;2.80;79.03;101012.91;4917118;29;20079;-82
2023/01/28 02:06:58;;;;;;;1.48;1.27;;;;;;;2.74;78.85;101015.53;4917650;29;20028;-82
2023/01/28 02:09:29;;;;;;;2.92;2.67;;;;;;;2.73;78.74;101012.13;4933567;29;20039;-82
2023/01/28 02:11:57;;;;;;;7.72;2.75;;;;;;;2.78;78.52;101027.44;4949061;29;20534;-82
2023/01/28 02:14:23;;;;;;;3.13;2.33;;;;;;;2.70;78.71;101024.09;4933271;29;20042;-82
2023/01/28 02:16:49;;;;;;;6.72;4.35;;;;;;;2.63;79.08;101012.25;4933230;29;20055;-82
2023/01/28 02:19:15;;;;;;;3.67;3.25;;;;;;;2.71;79.51;101021.53;4932838;29;20186;-82
2023/01/28 02:21:55;;;;;;;7.32;4.70;;;;;;;2.74;79.14;101031.69;4917271;29;20537;-82
2023/01/28 02:24:32;;;;;;;6.05;4.47;;;;;;;2.66;79.39;101030.13;4934367;29;20023;-82
2023/01/28 02:27:30;;;;;;;7.93;3.53;;;;;;;2.49;78.45;101005.56;4934103;29;20509;-82
2023/01/28 02:30:09;;;;;;;9.60;5.85;;;;;;;2.59;79.31;101029.31;4933139;29;20031;-82
2023/01/28 02:33:09;;;;;;;9.98;7.20;;;;;;;2.56;79.71;101024.25;4932789;29;20098;-82
2023/01/28 02:35:51;;;;;;;8.40;4.35;;;;;;;2.52;78.53;101015.75;4911999;29;20415;-82
2023/01/28 02:38:25;;;;;;;2.78;2.50;;;;;;;2.61;78.60;101026.75;4947770;29;20032;-82
2023/01/28 02:41:02;;;;;;;3.33;2.05;;;;;;;2.48;78.39;101003.88;4916954;29;20043;-82
2023/01/28 02:43:35;;;;;;;2.80;1.65;;;;;;;2.49;78.90;101015.78;4917669;29;20122;-82
2023/01/28 02:48:47;;;;;;;4.60;2.40;;;;;;;2.30;79.93;100999.78;4932458;29;20042;-82
2023/01/28 02:51:44;;;;;;;6.35;3.78;;;;;;;2.33;79.94;101019.34;4948877;29;20035;-82
2023/01/28 02:54:47;;;;;;;11.55;6.25;;;;;;;2.31;79.84;101013.41;4932975;29;20031;-82
2023/01/28 02:57:22;;;;;;;3.05;2.85;;;;;;;2.38;80.11;101038.03;4945998;29;20414;-82
2023/01/28 03:00:10;;;;;;;4.85;3.25;;;;;;;2.28;80.53;101026.19;4948200;29;20135;-82
2023/01/28 03:03:08;;;;;;;4.95;3.33;;;;;;;2.38;79.86;101038.03;4945800;29;20035;-82
2023/01/28 03:06:05;;;;;;;10.05;6.05;;;;;;;2.40;79.84;101041.41;4923584;29;20040;-82
2023/01/28 03:38:57;;;;;;;2.45;1.77;;;;;;;2.33;77.42;101034.66;4932113;29;20046;-82
2023/01/28 03:41:24;;;;;;;5.00;3.70;;;;;;;2.29;78.18;101043.22;4947979;29;20035;-82
2023/01/28 03:43:49;;;;;;;7.47;2.97;;;;;;;2.29;77.91;101050.88;4948281;29;20027;-82
2023/01/28 03:46:15;;;;;;;5.00;3.60;;;;;;;2.22;78.37;101037.28;4947816;29;20032;-82
2023/01/28 03:48:40;;;;;;;4.20;2.88;;;;;;;2.22;78.81;101031.34;4932124;29;20032;-82
2023/01/28 03:51:06;;;;;;;5.90;3.30;;;;;;;2.29;79.15;101055.97;4916253;29;20059;-82
2023/01/28 03:53:31;;;;;;;5.30;4.03;;;;;;;2.10;79.12;101028.91;4948404;29;20047;-82
2023/01/28 03:55:57;;;;;;;3.40;2.25;;;;;;;2.21;78.98;101044.97;4950375;29;20408;-82
2023/01/28 03:58:25;;;;;;;4.90;3.28;;;;;;;2.17;79.20;101050.97;4935851;29;20106;-82
2023/01/28 04:00:54;;;;;;;10.38;4.43;;;;;;;2.27;79.31;101052.59;4935450;29;20091;-82
2023/01/28 04:03:20;;;;;;;5.43;4.53;;;;;;;2.29;79.25;101068.75;4936052;29;20039;-81
2023/01/28 04:05:56;;;;;;;7.97;4.45;;;;;;;2.21;77.53;101040.72;4919584;29;20047;-82
2023/01/28 04:08:22;;;;;;;5.38;3.00;;;;;;;2.32;76.92;101043.19;4935626;29;20030;-81
2023/01/28 04:10:48;;;;;;;4.10;2.88;;;;;;;2.37;77.44;101064.44;4935552;29;20434;-82
2023/01/28 04:13:13;;;;;;;4.90;3.17;;;;;;;2.30;77.90;101060.22;4951295;29;20036;-82
2023/01/28 04:15:39;;;;;;;13.18;4.78;;;;;;;2.21;78.20;101047.53;4935082;29;20047;-82
2023/01/28 04:18:04;;;;;;;5.20;4.47;;;;;;;2.20;78.28;101053.50;4935293;29;20032;-82
2023/01/28 04:20:30;;;;;;;6.63;4.30;;;;;;;2.32;78.74;101078.91;4919713;29;20066;-82
2023/01/28 04:22:56;;;;;;;10.10;6.10;;;;;;;2.20;78.84;101062.00;4935400;29;20027;-82
2023/01/28 04:25:21;;;;;;;7.13;5.53;;;;;;;2.03;78.47;101034.91;4919482;29;20500;-82
2023/01/28 04:27:47;;;;;;;8.18;6.00;;;;;;;2.38;78.56;101094.19;4950816;29;20422;-82
2023/01/28 04:30:12;;;;;;;7.53;5.82;;;;;;;2.36;79.00;101087.38;4935008;29;20031;-81
2023/01/28 04:32:38;;;;;;;5.53;3.58;;;;;;;2.37;78.83;101092.50;4951087;29;20086;-81
2023/01/28 04:35:03;;;;;;;5.18;3.17;;;;;;;2.30;78.61;101075.53;4951258;29;20040;-82
2023/01/28 04:37:29;;;;;;;5.85;4.50;;;;;;;2.35;78.45;101094.22;4935033;29;20035;-81
2023/01/28 04:39:54;;;;;;;6.93;5.63;;;;;;;2.42;79.13;101098.41;4950648;29;20031;-82
2023/01/28 04:42:20;;;;;;;6.30;4.93;;;;;;;2.39;78.88;101090.78;4934746;29;20032;-82
2023/01/28 04:44:45;;;;;;;7.68;4.40;;;;;;;2.37;78.57;101102.72;4950308;29;20040;-82
2023/01/28 04:47:11;;;;;;;9.02;5.47;;;;;;;2.29;78.82;101089.16;4934833;29;20031;-82
2023/01/28 04:49:36;;;;;;;8.43;5.32;;;;;;;2.38;78.92;101111.22;4934655;29;20042;-81
2023/01/28 04:52:01;;;;;;;5.80;4.35;;;;;;;2.28;78.45;101093.44;4950650;29;20431;-82
2023/01/28 04:54:27;;;;;;;4.80;3.90;;;;;;;2.30;78.99;101107.03;4950465;29;20163;-82
2023/01/28 04:56:52;;;;;;;5.72;4.53;;;;;;;2.37;79.36;101118.03;4934653;29;20031;-82
2023/01/28 04:59:18;;;;;;;4.35;3.08;;;;;;;2.37;79.33;101118.03;4949999;29;20038;-82
2023/01/28 05:01:44;;;;;;;8.10;6.05;;;;;;;2.40;79.25;101123.13;4934776;29;20032;-82
2023/01/28 05:04:09;;;;;;;5.55;4.88;;;;;;;2.20;78.94;101084.97;4934383;29;20145;-81
2023/01/28 05:06:35;;;;;;;4.93;4.20;;;;;;;2.42;78.22;101116.28;4935051;29;20384;-82
2023/01/28 05:09:00;;;;;;;4.55;4.15;;;;;;;2.49;78.15;101117.94;4950469;29;20028;-82
2023/01/28 05:11:26;;;;;;;12.00;5.50;;;;;;;2.32;78.22;101096.78;4934238;29;20099;-82
2023/01/28 05:13:53;;;;;;;7.18;5.45;;;;;;;2.12;78.04;101071.41;4949903;29;20058;-82
2023/01/28 05:16:18;;;;;;;7.35;5.20;;;;;;;2.41;77.37;101117.16;4934131;29;20522;-82
2023/01/28 05:18:46;;;;;;;7.68;4.88;;;;;;;2.46;76.74;101120.53;4950191;29;20028;-82
2023/01/28 05:21:12;;;;;;;8.32;6.22;;;;;;;2.42;76.36;101111.19;4934398;29;20406;-82
2023/01/28 05:23:38;;;;;;;7.22;4.75;;;;;;;2.56;76.64;101136.63;4949980;29;20036;-82
2023/01/28 05:26:03;;;;;;;4.57;4.13;;;;;;;2.42;77.01;101120.56;4934495;29;20031;-82
2023/01/28 05:28:29;;;;;;;10.27;6.03;;;;;;;2.42;77.13;101123.94;4933572;29;20028;-82
2023/01/28 05:30:54;;;;;;;9.63;7.00;;;;;;;2.28;77.22;101107.91;4934043;29;20412;-82
2023/01/28 05:33:20;;;;;;;15.48;7.47;;;;;;;2.46;77.38;101128.19;4934007;29;20035;-82
2023/01/28 05:35:45;;;;;;;9.05;7.63;;;;;;;2.36;77.42;101115.47;4933949;29;20043;-82
2023/01/28 05:38:11;;;;;;;15.77;8.27;;;;;;;2.40;77.65;101122.28;4933857;29;20463;-82
2023/01/28 05:40:36;;;;;;;10.57;5.82;;;;;;;2.37;76.83;101112.94;4933752;29;20035;-82
2023/01/28 05:43:01;;;;;;;10.98;5.75;;;;;;;2.44;76.67;101124.78;4933921;29;20519;-81
2023/01/28 05:45:27;;;;;;;6.95;5.88;;;;;;;2.35;76.60;101113.78;4949774;29;20031;-82
2023/01/28 05:47:52;;;;;;;11.20;6.28;;;;;;;2.45;77.21;101140.94;4933632;29;20035;-82
2023/01/28 05:50:18;;;;;;;12.38;7.60;;;;;;;2.46;77.24;101135.84;4949671;29;20024;-82
2023/01/28 05:52:44;;;;;;;9.20;6.22;;;;;;;2.36;77.49;101129.13;4949324;29;20039;-81
2023/01/28 05:55:09;;;;;;;13.63;8.73;;;;;;;2.38;77.32;101137.63;4933747;29;20028;-81
2023/01/28 05:57:35;;;;;;;11.85;9.85;;;;;;;2.37;77.22;101133.38;4933229;29;20032;-82
2023/01/28 06:00:00;;;;;;;13.93;10.57;;;;;;;2.37;77.57;101138.47;4933659;29;20032;-82
2023/01/28 06:02:26;;;;;;;12.80;8.98;;;;;;;2.47;77.65;101159.69;4949253;29;20039;-82
2023/01/28 06:04:51;;;;;;;12.00;7.43;;;;;;;2.24;77.88;101126.63;4933267;29;20059;-82
2023/01/28 06:07:19;;;;;;;8.85;5.97;;;;;;;2.42;78.26;101146.09;4933482;29;20027;-81
2023/01/28 06:09:46;;;;;;;8.57;5.63;;;;;;;2.37;78.48;101145.28;4949129;29;20119;-82
2023/01/28 06:12:11;;;;;;;11.63;6.22;;;;;;;2.44;78.48;101160.53;4932835;29;20119;-81
2023/01/28 06:14:37;;;;;;;12.35;6.88;;;;;;;2.48;78.27;101163.94;4933435;29;20040;-82
2023/01/28 06:17:02;;;;;;;9.43;5.93;;;;;;;2.46;78.52;101163.94;4932703;29;20035;-81
2023/01/28 06:19:28;;;;;;;17.48;9.85;;;;;;;2.49;78.35;101173.28;4948826;29;20091;-81
2023/01/28 06:21:53;;;;;;;14.60;8.93;;;;;;;2.49;78.57;101178.41;4949167;29;20039;-82
2023/01/28 06:24:19;;;;;;;15.40;8.02;;;;;;;2.46;78.65;101173.28;4917377;29;20079;-82
2023/01/28 06:26:44;;;;;;;17.67;8.52;;;;;;;2.49;78.42;101181.78;4948826;29;20078;-81
2023/01/28 06:29:10;;;;;;;14.05;10.20;;;;;;;2.50;78.60;101174.97;4948756;29;20078;-82
2023/01/28 06:31:35;;;;;;;9.25;6.40;;;;;;;2.47;78.46;101175.84;4932846;29;20504;-82
2023/01/28 06:34:01;;;;;;;11.13;6.32;;;;;;;2.57;78.36;101185.16;4933041;29;20031;-81
2023/01/28 06:36:26;;;;;;;6.95;5.63;;;;;;;2.50;78.48;101180.94;4949161;29;20423;-82
2023/01/28 06:38:52;;;;;;;30.40;8.68;;;;;;;2.35;78.07;101140.16;4932964;29;20554;-82
2023/01/28 06:41:17;;;;;;;14.88;9.18;;;;;;;2.52;78.21;101174.09;4932558;29;20031;-82
2023/01/28 06:43:43;;;;;;;8.73;6.03;;;;;;;2.63;78.33;101188.50;4932777;29;20023;-82
2023/01/28 06:46:08;;;;;;;15.30;8.80;;;;;;;2.58;78.18;101178.34;4916939;29;20038;-82
2023/01/28 06:48:34;;;;;;;12.80;8.00;;;;;;;2.65;78.02;101189.34;4948966;29;20407;-82
2023/01/28 06:50:59;;;;;;;13.30;8.52;;;;;;;2.69;77.77;101196.97;4932701;29;20091;-81
2023/01/28 06:53:25;;;;;;;11.05;6.35;;;;;;;2.72;76.63;101180.75;4916679;29;20075;-81
2023/01/28 06:55:50;;;;;;;13.70;7.30;;;;;;;2.73;76.55;101177.34;4948531;29;20087;-82
2023/01/28 06:58:16;;;;;;;5.80;4.20;;;;;;;2.78;77.03;101196.91;4948323;29;20058;-82
2023/01/28 07:00:41;;;;;;;8.32;6.28;;;;;;;2.69;76.92;101173.97;4932575;29;20122;-82
2023/01/28 07:03:06;;;;;;;7.85;6.07;;;;;;;2.81;76.49;101207.09;4932307;29;20499;-81
2023/01/28 07:05:32;;;;;;;7.97;6.68;;;;;;;2.73;76.67;101188.41;4948193;29;20062;-82
2023/01/28 07:07:57;;;;;;;7.75;6.78;;;;;;;2.91;76.38;101215.53;4948284;29;20039;-81
2023/01/28 07:10:23;;;;;;;14.60;7.55;;;;;;;2.79;76.68;101198.59;4916193;29;20578;-82
2023/01/28 07:12:48;;;;;;;6.45;5.05;;;;;;;2.97;76.16;101212.94;4948322;29;20035;-82
2023/01/28 07:15:14;;;;;;;5.05;4.18;;;;;;;3.08;76.25;101221.38;4948348;29;20051;-81
2023/01/28 07:17:40;;;;;;;8.63;5.28;;;;;;;3.03;76.23;101212.03;4916335;29;20495;-82
2023/01/28 07:20:07;;;;;;;6.65;4.65;;;;;;;3.07;76.50;101219.69;4947897;29;20036;-82
2023/01/28 07:22:32;;;;;;;11.40;7.32;;;;;;;2.97;75.63;101212.94;4931931;29;20063;-82
2023/01/28 07:24:59;;;;;;;11.35;6.78;;;;;;;3.05;74.16;101223.97;4931713;29;20064;-82
2023/01/28 07:27:25;;;;;;;19.27;10.13;;;;;;;2.93;74.50;101198.47;4932275;29;20035;-82
2023/01/28 07:29:51;;;;;;;13.88;8.63;;;;;;;3.07;74.48;101223.94;4950774;28;20086;-82
2023/01/28 07:32:16;;;;;;;8.90;7.72;;;;;;;2.99;75.93;101211.22;4952271;29;20416;-82
2023/01/28 07:34:42;;;;;;;15.65;9.07;;;;;;;2.96;73.61;101212.97;4935914;29;20063;-82
2023/01/28 07:37:08;;;;;;;12.73;8.52;;;;;;;3.05;73.36;101236.75;4952278;29;20035;-82
2023/01/28 07:39:33;;;;;;;11.43;6.85;;;;;;;3.05;74.00;101243.56;4951609;29;20555;-82
2023/01/28 07:41:59;;;;;;;16.17;7.25;;;;;;;2.90;73.84;101233.44;4936060;29;20063;-82
2023/01/28 07:44:25;;;;;;;5.00;3.42;;;;;;;2.82;73.14;101221.56;4935978;29;20043;-82
2023/01/28 07:46:50;;;;;;;9.00;4.50;;;;;;;2.84;73.46;101247.09;4935646;29;20428;-82
2023/01/28 07:49:16;;;;;;;4.00;3.65;;;;;;;2.67;74.48;101218.28;4935934;29;20024;-82
2023/01/28 07:51:41;;;;;;;10.57;5.05;;;;;;;2.84;74.12;101250.50;4935660;29;20024;-82
2023/01/28 07:54:08;;;;;;;6.65;3.88;;;;;;;2.85;74.12;101249.69;4936791;29;20509;-82
2023/01/28 07:56:33;;;;;;;4.82;3.15;;;;;;;2.77;74.69;101251.44;4935885;29;20039;-81
2023/01/28 07:58:59;;;;;;;4.47;3.25;;;;;;;2.75;74.83;101253.16;4935705;29;20042;-82
2023/01/28 08:01:24;;;;;;;8.40;5.03;;;;;;;2.78;74.17;101258.22;4951951;29;20043;-82
2023/01/28 08:03:50;;;;;;;6.75;4.30;;;;;;;2.77;74.71;101263.34;4935288;29;20032;-81
2023/01/28 08:06:15;;;;;;;10.15;4.78;;;;;;;2.77;75.42;101258.25;4951286;29;20040;-82
2023/01/28 08:08:41;;;;;;;8.55;6.03;;;;;;;2.78;75.29;101271.00;4935312;29;20028;-82
2023/01/28 08:11:08;;;;;;;7.20;4.90;;;;;;;2.73;74.36;101262.50;4935462;29;20035;-81
2023/01/28 08:13:34;;;;;;;7.97;5.78;;;;;;;2.82;75.00;101270.13;4935530;29;20036;-82
2023/01/28 08:15:59;;;;;;;8.32;6.35;;;;;;;2.84;74.89;101268.38;4951423;29;20032;-82
2023/01/28 08:18:25;;;;;;;9.27;6.47;;;;;;;2.82;74.92;101266.72;4935433;29;20039;-81
2023/01/28 08:20:54;;;;;;;8.32;3.90;;;;;;;2.86;74.97;101263.31;4934776;29;20035;-82
2023/01/28 08:23:20;;;;;;;3.97;2.40;;;;;;;2.86;76.00;101261.59;4934940;29;20066;-82
2023/01/28 08:25:46;;;;;;;4.82;3.08;;;;;;;2.95;74.74;101270.03;4935170;29;20059;-82
2023/01/28 08:28:12;;;;;;;3.38;1.70;;;;;;;2.94;75.40;101284.50;4950863;29;20023;-81
2023/01/28 08:30:37;;;;;;;10.20;4.00;;;;;;;2.84;74.68;101267.53;4950887;29;20039;-81
2023/01/28 08:33:04;;;;;;;2.05;1.90;;;;;;;3.03;74.85;101292.13;4935117;29;20035;-82
2023/01/28 08:35:29;;;;;;;5.22;4.05;;;;;;;3.05;75.24;101292.97;4934715;29;20024;-82
2023/01/28 08:37:55;;;;;;;7.53;4.28;;;;;;;2.84;74.98;101263.28;4950921;29;20054;-81
2023/01/28 08:40:20;;;;;;;7.97;4.30;;;;;;;3.04;74.83;101290.41;4934033;29;20143;-81
2023/01/28 08:42:47;;;;;;;4.80;2.53;;;;;;;2.98;75.30;101291.31;4934947;29;20028;-81
2023/01/28 08:45:13;;;;;;;1.80;1.65;;;;;;;3.08;74.95;101299.78;4919096;29;20028;-81
2023/01/28 08:47:52;;;;;;;3.17;2.75;;;;;;;3.07;74.66;101301.47;4935110;29;20563;-81
2023/01/28 08:50:18;;;;;;;5.43;3.80;;;;;;;3.02;75.85;101303.19;4950459;29;20027;-81
2023/01/28 08:52:44;;;;;;;2.25;1.75;;;;;;;2.92;75.40;101304.13;4918810;29;20028;-82
2023/01/28 08:55:11;;;;;;;6.05;3.00;;;;;;;2.90;75.88;101287.13;4950307;29;20035;-81
2023/01/28 08:57:36;;;;;;;6.07;3.97;;;;;;;2.95;76.35;101291.34;4918840;29;20027;-82
2023/01/28 09:00:02;;;;;;;2.20;2.00;;;;;;;2.96;75.39;101308.38;4934644;29;20562;-82
2023/01/28 09:02:28;;;;;;;42.40;12.20;;;;;;;2.86;76.64;101299.06;4934770;29;20518;-82
2023/01/28 09:04:53;;;;;;;4.50;3.17;;;;;;;2.87;76.12;101300.78;4949697;29;20056;-82
2023/01/28 09:07:19;;;;;;;12.35;5.50;;;;;;;2.90;76.17;101300.75;4950207;29;20764;-81
2023/01/28 09:09:44;;;;;;;2.28;1.98;;;;;;;2.77;76.00;101281.25;4934398;29;20038;-81
2023/01/28 09:12:10;;;;;;;0.80;0.80;;;;;;;2.84;76.67;101293.09;4934472;29;20027;-81
2023/01/28 09:14:35;;;;;;;3.67;2.40;;;;;;;2.98;76.38;101300.69;4950260;29;20427;-81
2023/01/28 09:17:01;;;;;;;4.57;2.45;;;;;;;3.05;76.19;101308.31;4950222;29;20122;-82
2023/01/28 09:19:28;;;;;;;2.00;1.70;;;;;;;2.93;76.42;101305.81;4949557;29;20047;-82
2023/01/28 09:21:53;;;;;;;7.57;3.92;;;;;;;2.88;76.17;101297.34;4918447;29;20036;-81
2023/01/28 09:24:19;;;;;;;4.38;2.42;;;;;;;2.96;76.38;101305.81;4950488;29;20043;-82
2023/01/28 09:26:44;;;;;;;4.68;2.63;;;;;;;3.02;76.30;101308.31;4934084;29;20030;-81
2023/01/28 09:29:10;;;;;;;5.80;3.10;;;;;;;3.08;75.74;101317.66;4934051;29;20043;-81
2023/01/28 09:31:35;;;;;;;2.70;2.13;;;;;;;3.04;76.49;101301.47;4949761;29;20035;-82
2023/01/28 09:34:02;;;;;;;4.38;3.13;;;;;;;3.27;75.76;101324.34;4933759;29;20497;-82
2023/01/28 09:36:28;;;;;;;4.57;3.60;;;;;;;3.25;76.57;101315.00;4949826;29;20055;-81
2023/01/28 09:38:53;;;;;;;2.45;2.25;;;;;;;3.22;76.00;101320.97;4933539;29;20075;-82
2023/01/28 09:41:26;;;;;;;5.82;3.97;;;;;;;3.16;76.11;101291.19;4949814;29;20407;-81
2023/01/28 09:44:03;;;;;;;3.42;3.13;;;;;;;3.35;76.48;101311.50;4949269;29;20114;-82
2023/01/28 09:46:34;;;;;;;4.10;2.00;;;;;;;3.28;76.38;101307.28;4949742;29;20126;-81
2023/01/28 09:49:00;;;;;;;4.05;2.80;;;;;;;3.36;75.56;101314.03;4949283;29;20495;-82
2023/01/28 09:51:41;;;;;;;6.90;2.05;;;;;;;3.36;76.03;101303.81;4949473;29;20087;-81
2023/01/28 09:54:40;;;;;;;5.80;4.07;;;;;;;3.32;75.60;101302.13;4948951;29;20042;-82
2023/01/28 09:57:23;;;;;;;5.65;4.07;;;;;;;3.23;76.06;101297.06;4934568;29;20032;-82
2023/01/28 09:59:51;;;;;;;8.73;3.83;;;;;;;3.24;75.63;101303.03;4933573;29;20035;-82
2023/01/28 10:02:22;;;;;;;8.50;3.92;;;;;;;3.36;75.69;101302.97;4933585;29;20039;-82
2023/01/28 10:05:10;;;;;;;9.60;3.50;;;;;;;3.38;75.38;101301.22;4934374;29;20511;-82
2023/01/28 10:07:55;;;;;;;10.38;3.88;;;;;;;3.25;76.12;101261.28;4934341;29;20028;-82
2023/01/28 10:10:42;;;;;;;6.55;4.88;;;;;;;3.52;75.17;101294.28;4918333;29;20039;-82
2023/01/28 10:13:33;;;;;;;3.22;2.70;;;;;;;3.37;75.17;101294.41;4949462;29;20040;-82
2023/01/28 10:16:11;;;;;;;7.40;3.72;;;;;;;3.35;74.45;101293.59;4934560;29;20024;-81
2023/01/28 10:18:42;;;;;;;4.85;3.33;;;;;;;3.31;74.99;101290.19;4918119;29;20046;-82
2023/01/28 10:21:41;;;;;;;2.13;1.90;;;;;;;3.26;75.62;101291.13;4917313;29;20036;-82
2023/01/28 10:24:20;;;;;;;2.55;1.92;;;;;;;3.36;75.58;101287.63;4930899;29;20118;-82
2023/01/28 10:26:45;;;;;;;6.13;3.20;;;;;;;3.32;75.69;101274.00;4948747;29;20047;-82
2023/01/28 10:29:17;;;;;;;8.98;2.45;;;;;;;3.37;76.21;101287.59;4933070;29;20411;-82
2023/01/28 10:32:16;;;;;;;2.50;2.30;;;;;;;3.57;75.39;101292.53;4932768;29;20087;-82
2023/01/28 10:34:42;;;;;;;8.13;4.13;;;;;;;3.51;75.11;101282.34;4932695;29;20272;-82
2023/01/28 10:37:10;;;;;;;3.03;1.90;;;;;;;3.46;74.81;101284.13;4932865;29;20110;-82
2023/01/28 10:39:36;;;;;;;4.13;2.92;;;;;;;3.40;74.72;101266.25;4917061;29;20032;-82
2023/01/28 10:42:01;;;;;;;5.57;4.00;;;;;;;3.57;74.55;101284.84;4917188;29;20952;-82
2023/01/28 10:44:37;;;;;;;2.80;2.45;;;;;;;3.59;73.91;101283.13;4932571;29;20028;-82
2023/01/28 10:47:21;;;;;;;2.83;2.38;;;;;;;3.51;74.31;101274.66;4900907;29;20031;-82
2023/01/28 10:49:50;;;;;;;5.80;3.25;;;;;;;3.45;72.73;101274.75;4918606;29;20040;-82
2023/01/28 10:52:17;;;;;;;2.92;2.42;;;;;;;3.50;73.98;101284.91;4917192;29;20087;-81
2023/01/28 10:54:42;;;;;;;2.13;1.90;;;;;;;3.55;73.10;101290.84;4933013;29;20048;-82
2023/01/28 10:57:11;;;;;;;4.75;3.30;;;;;;;3.54;73.66;101292.56;4916898;29;20460;-82
2023/01/28 10:59:40;;;;;;;2.10;1.85;;;;;;;3.56;72.65;101283.16;4917044;29;20039;-82
2023/01/28 11:02:30;;;;;;;2.67;2.47;;;;;;;3.69;74.49;101283.88;4901404;29;20024;-81
2023/01/28 11:05:19;;;;;;;6.70;3.30;;;;;;;3.73;73.87;101291.50;4931800;29;20106;-82
2023/01/28 11:07:47;;;;;;;2.05;1.23;;;;;;;3.63;74.34;101282.22;4947541;29;20435;-82
2023/01/28 11:10:31;;;;;;;2.65;2.38;;;;;;;3.57;73.23;101272.06;4916962;29;20032;-82
2023/01/28 11:13:01;;;;;;;0.98;0.98;;;;;;;3.41;74.09;101258.56;4916993;29;20058;-81
2023/01/28 11:15:26;;;;;;;5.15;2.42;;;;;;;3.56;72.80;101285.72;4916627;29;20034;-81
2023/01/28 11:18:05;;;;;;;4.53;3.15;;;;;;;3.49;73.81;101258.50;4916520;29;20415;-82
2023/01/28 11:20:34;;;;;;;5.05;2.17;;;;;;;3.49;73.18;101273.84;4901272;29;20089;-82
2023/01/28 11:23:00;;;;;;;5.10;3.45;;;;;;;3.59;73.64;101283.13;4932152;29;20031;-82
2023/01/28 11:25:25;;;;;;;7.82;3.95;;;;;;;3.50;74.17;101272.13;4932131;29;20531;-83
2023/01/28 11:27:51;;;;;;;7.97;4.95;;;;;;;3.62;73.94;101285.66;4948224;29;20035;-83
2023/01/28 11:30:33;;;;;;;5.82;4.75;;;;;;;3.56;73.55;101279.75;4915920;29;20031;-83
2023/01/28 11:33:18;;;;;;;2.08;1.75;;;;;;;3.42;74.53;101267.06;4917409;29;20028;-83
2023/01/28 11:35:55;;;;;;;4.82;3.25;;;;;;;3.39;74.09;101262.00;4947944;29;20036;-82
2023/01/28 11:38:22;;;;;;;5.70;3.90;;;;;;;3.32;74.21;101239.91;4916505;29;20495;-83
2023/01/28 11:40:54;;;;;;;4.35;3.83;;;;;;;3.51;74.68;101267.00;4900797;29;20506;-83
2023/01/28 11:43:20;;;;;;;5.07;3.25;;;;;;;3.62;74.21;101269.44;4917112;29;20122;-83
2023/01/28 11:46:01;;;;;;;6.38;5.03;;;;;;;3.43;73.67;101246.59;4916086;29;20031;-82
2023/01/28 11:48:50;;;;;;;6.93;4.25;;;;;;;3.65;75.08;101275.41;4931881;29;20404;-83
2023/01/28 11:51:27;;;;;;;7.63;4.20;;;;;;;3.65;74.39;101277.13;4947960;29;20042;-83
2023/01/28 11:54:11;;;;;;;9.55;4.82;;;;;;;3.64;74.34;101278.81;4947940;29;20028;-83
2023/01/28 11:56:45;;;;;;;8.93;3.72;;;;;;;3.67;74.15;101273.66;4933532;29;20483;-82
2023/01/28 11:59:23;;;;;;;8.05;4.65;;;;;;;3.67;73.84;101277.94;4947514;29;20153;-82
2023/01/28 12:02:11;;;;;;;4.85;4.05;;;;;;;3.62;73.66;101267.72;4947614;29;20043;-83
2023/01/28 12:04:42;;;;;;;3.38;2.88;;;;;;;3.65;73.27;101275.41;4931825;29;20048;-82
2023/01/28 12:07:19;;;;;;;9.20;5.80;;;;;;;3.68;73.07;101274.50;4933176;29;20488;-83
2023/01/28 12:09:45;;;;;;;9.95;5.50;;;;;;;3.62;74.18;101259.22;4932847;29;20087;-82
2023/01/28 12:12:19;;;;;;;12.13;4.75;;;;;;;3.72;72.71;101273.59;4947808;29;20474;-83
2023/01/28 12:14:57;;;;;;;5.15;4.30;;;;;;;3.80;73.27;101283.78;4916331;29;20550;-82